createdAt,value
2019-03-05T00:00:38.853Z,6.30
2019-03-05T00:01:49.133Z,6.40
2019-03-05T00:02:53.737Z,6.40
2019-03-05T00:03:58.350Z,6.40
2019-03-05T00:05:03.091Z,6.50
2019-03-05T00:06:08.057Z,6.50
2019-03-05T00:07:12.687Z,6.50
2019-03-05T00:08:17.380Z,6.60
2019-03-05T00:09:22.840Z,6.50
2019-03-05T00:10:27.553Z,6.50
2019-03-05T00:11:32.212Z,6.60
2019-03-05T00:12:36.890Z,6.60
2019-03-05T00:13:41.491Z,6.50
2019-03-05T00:14:46.080Z,6.50
2019-03-05T00:15:51.835Z,6.50
2019-03-05T00:16:57.493Z,6.50
2019-03-05T00:18:02.068Z,6.50
2019-03-05T00:19:06.631Z,6.50
2019-03-05T00:20:11.546Z,6.50
2019-03-05T00:21:17.689Z,6.50
2019-03-05T00:22:22.477Z,6.50
2019-03-05T00:23:49.257Z,6.40
2019-03-05T00:25:01.606Z,6.50
2019-03-05T00:26:06.225Z,6.50
2019-03-05T00:27:11.261Z,6.50
2019-03-05T00:28:42.845Z,6.50
2019-03-05T00:30:14.723Z,6.50
2019-03-05T00:31:24.956Z,6.60
2019-03-05T00:32:29.532Z,6.60
2019-03-05T00:34:02.021Z,6.60
2019-03-05T00:35:22.204Z,6.60
2019-03-05T00:36:34.504Z,6.60
2019-03-05T00:38:13.996Z,6.70
2019-03-05T00:39:39.348Z,6.70
2019-03-05T00:40:56.903Z,6.70
2019-03-05T00:42:57.710Z,6.70
2019-03-05T00:44:21.084Z,6.70
2019-03-05T00:46:04.616Z,6.80
2019-03-05T00:47:38.671Z,6.80
2019-03-05T00:49:21.015Z,6.80
2019-03-05T00:50:46.242Z,6.80
2019-03-05T00:52:20.364Z,6.80
2019-03-05T00:53:56.831Z,6.80
2019-03-05T00:55:38.599Z,6.90
2019-03-05T00:56:55.284Z,6.90
2019-03-05T00:58:05.913Z,6.90
2019-03-05T00:59:37.528Z,6.90
2019-03-05T01:01:01.676Z,6.90
2019-03-05T01:02:34.371Z,6.90
2019-03-05T01:04:21.518Z,6.90
2019-03-05T01:05:55.154Z,6.90
2019-03-05T01:06:59.869Z,6.90
2019-03-05T01:08:23.975Z,6.90
2019-03-05T01:09:29.081Z,6.90
2019-03-05T01:10:33.696Z,7.00
2019-03-05T01:11:38.470Z,6.90
2019-03-05T01:12:43.276Z,6.90
2019-03-05T01:13:47.846Z,6.90
2019-03-05T01:14:53.411Z,6.90
2019-03-05T01:15:57.980Z,6.90
2019-03-05T01:17:02.594Z,6.90
2019-03-05T01:18:07.276Z,6.90
2019-03-05T01:19:11.827Z,6.90
2019-03-05T01:20:16.512Z,6.90
2019-03-05T01:21:21.077Z,6.90
2019-03-05T01:22:25.734Z,6.90
2019-03-05T01:23:49.651Z,6.90
2019-03-05T01:24:54.241Z,6.80
2019-03-05T01:25:58.847Z,6.80
2019-03-05T01:27:03.511Z,6.80
2019-03-05T01:28:08.122Z,6.80
2019-03-05T01:29:12.891Z,6.70
2019-03-05T01:30:33.740Z,6.70
2019-03-05T01:31:56.073Z,6.70
2019-03-05T01:33:06.512Z,6.60
2019-03-05T01:34:18.379Z,6.60
2019-03-05T01:35:30.133Z,6.50
2019-03-05T01:36:37.861Z,6.50
2019-03-05T01:37:42.440Z,6.50
2019-03-05T01:38:56.908Z,6.40
2019-03-05T01:40:07.185Z,6.40
2019-03-05T01:41:12.056Z,6.40
2019-03-05T01:42:16.588Z,6.30
2019-03-05T01:43:21.178Z,6.30
2019-03-05T01:44:25.956Z,6.20
2019-03-05T01:45:30.675Z,6.20
2019-03-05T01:46:35.249Z,6.20
2019-03-05T01:47:39.859Z,6.10
2019-03-05T01:48:44.455Z,6.10
2019-03-05T01:49:49.026Z,6.10
2019-03-05T01:50:53.642Z,6.10
2019-03-05T01:51:58.201Z,6.10
2019-03-05T01:53:02.923Z,6.00
2019-03-05T01:54:07.660Z,6.00
2019-03-05T01:55:12.363Z,6.00
2019-03-05T01:56:16.944Z,5.90
2019-03-05T01:57:21.539Z,5.90
2019-03-05T01:58:26.195Z,5.90
2019-03-05T01:59:30.749Z,5.90
2019-03-05T02:00:35.734Z,5.90
2019-03-05T02:01:40.325Z,5.90
2019-03-05T02:02:44.940Z,5.90
2019-03-05T02:03:49.548Z,5.80
2019-03-05T02:04:54.195Z,5.80
2019-03-05T02:05:58.804Z,5.80
2019-03-05T02:07:03.655Z,5.80
2019-03-05T02:08:08.673Z,5.80
2019-03-05T02:09:13.574Z,5.80
2019-03-05T02:10:20.958Z,5.80
2019-03-05T02:11:25.625Z,5.80
2019-03-05T02:12:30.229Z,5.80
2019-03-05T02:13:34.878Z,5.80
2019-03-05T02:14:39.444Z,5.80
2019-03-05T02:15:44.026Z,5.70
2019-03-05T02:16:48.579Z,5.70
2019-03-05T02:17:53.325Z,5.70
2019-03-05T02:19:34.033Z,5.70
2019-03-05T02:20:38.695Z,5.70
2019-03-05T02:21:44.336Z,5.70
2019-03-05T02:22:59.329Z,5.70
2019-03-05T02:24:53.547Z,5.70
2019-03-05T02:26:38.487Z,5.70
2019-03-05T02:28:01.663Z,5.70
2019-03-05T02:29:38.597Z,5.60
2019-03-05T02:31:16.471Z,5.70
2019-03-05T02:33:08.086Z,5.60
2019-03-05T02:34:21.569Z,5.60
2019-03-05T02:35:47.160Z,5.60
2019-03-05T02:37:09.987Z,5.60
2019-03-05T02:38:32.691Z,5.60
2019-03-05T02:40:18.323Z,5.60
2019-03-05T02:41:48.005Z,5.60
2019-03-05T02:43:17.599Z,5.60
2019-03-05T02:44:31.295Z,5.60
2019-03-05T02:45:43.788Z,5.60
2019-03-05T02:47:13.816Z,5.60
2019-03-05T02:49:00.094Z,5.60
2019-03-05T02:50:38.756Z,5.60
2019-03-05T02:52:07.794Z,5.50
2019-03-05T02:53:31.772Z,5.60
2019-03-05T02:55:12.769Z,5.50
2019-03-05T02:56:53.290Z,5.60
2019-03-05T02:57:56.727Z,5.60
2019-03-05T02:59:00.064Z,5.60
2019-03-05T03:00:09.096Z,5.60
2019-03-05T03:01:23.381Z,5.60
2019-03-05T03:02:40.390Z,5.60
2019-03-05T03:03:48.171Z,5.60
2019-03-05T03:04:56.579Z,5.60
2019-03-05T03:06:17.689Z,5.60
2019-03-05T03:07:22.326Z,5.60
2019-03-05T03:08:27.053Z,5.60
2019-03-05T03:10:06.334Z,5.60
2019-03-05T03:11:10.930Z,5.60
2019-03-05T03:12:15.553Z,5.60
2019-03-05T03:13:20.150Z,5.70
2019-03-05T03:14:24.827Z,5.70
2019-03-05T03:15:29.577Z,5.70
2019-03-05T03:16:34.140Z,5.70
2019-03-05T03:17:39.319Z,5.70
2019-03-05T03:18:44.816Z,5.70
2019-03-05T03:19:49.932Z,5.70
2019-03-05T03:20:54.537Z,5.70
2019-03-05T03:21:59.191Z,5.80
2019-03-05T03:23:03.959Z,5.70
2019-03-05T03:24:08.592Z,5.80
2019-03-05T03:25:18.080Z,5.80
2019-03-05T03:26:22.711Z,5.80
2019-03-05T03:27:28.246Z,5.90
2019-03-05T03:28:32.850Z,5.90
2019-03-05T03:29:37.415Z,5.90
2019-03-05T03:30:41.972Z,5.90
2019-03-05T03:31:46.550Z,5.90
2019-03-05T03:32:51.130Z,6.00
2019-03-05T03:33:55.854Z,6.00
2019-03-05T03:35:01.981Z,6.00
2019-03-05T03:36:10.246Z,6.10
2019-03-05T03:37:15.167Z,6.10
2019-03-05T03:38:20.702Z,6.10
2019-03-05T03:39:25.297Z,6.20
2019-03-05T03:40:29.901Z,6.20
2019-03-05T03:41:34.567Z,6.20
2019-03-05T03:42:39.307Z,6.20
2019-03-05T03:43:44.377Z,6.30
2019-03-05T03:44:49.039Z,6.30
2019-03-05T03:45:53.585Z,6.30
2019-03-05T03:46:58.159Z,6.30
2019-03-05T03:48:02.718Z,6.30
2019-03-05T03:49:07.278Z,6.30
2019-03-05T03:50:12.085Z,6.30
2019-03-05T03:51:16.697Z,6.30
2019-03-05T03:52:21.285Z,6.40
2019-03-05T03:53:25.896Z,6.40
2019-03-05T03:54:30.568Z,6.40
2019-03-05T03:55:35.524Z,6.40
2019-03-05T03:56:40.094Z,6.40
2019-03-05T03:57:44.715Z,6.50
2019-03-05T03:58:49.770Z,6.50
2019-03-05T03:59:54.485Z,6.50
2019-03-05T04:00:59.147Z,6.50
2019-03-05T04:02:03.791Z,6.50
2019-03-05T04:03:08.413Z,6.50
2019-03-05T04:04:14.244Z,6.50
2019-03-05T04:05:18.845Z,6.60
2019-03-05T04:06:23.511Z,6.60
2019-03-05T04:07:28.201Z,6.60
2019-03-05T04:08:33.093Z,6.60
2019-03-05T04:09:38.711Z,6.60
2019-03-05T04:10:43.368Z,6.60
2019-03-05T04:11:47.956Z,6.60
2019-03-05T04:12:52.615Z,6.70
2019-03-05T04:13:59.746Z,6.60
2019-03-05T04:15:03.848Z,6.70
2019-03-05T04:16:08.487Z,6.60
2019-03-05T04:17:13.141Z,6.60
2019-03-05T04:18:18.019Z,6.60
2019-03-05T04:19:27.514Z,6.70
2019-03-05T04:20:40.775Z,6.60
2019-03-05T04:21:45.652Z,6.70
2019-03-05T04:22:50.320Z,6.70
2019-03-05T04:23:54.923Z,6.70
2019-03-05T04:24:59.492Z,6.70
2019-03-05T04:26:04.066Z,6.70
2019-03-05T04:27:08.691Z,6.70
2019-03-05T04:28:13.269Z,6.70
2019-03-05T04:29:17.888Z,6.70
2019-03-05T04:30:22.617Z,6.70
2019-03-05T04:31:27.171Z,6.70
2019-03-05T04:32:31.768Z,6.70
2019-03-05T04:33:36.346Z,6.70
2019-03-05T04:34:41.266Z,6.70
2019-03-05T04:35:45.866Z,6.70
2019-03-05T04:36:50.439Z,6.70
2019-03-05T04:37:55.060Z,6.70
2019-03-05T04:38:59.737Z,6.70
2019-03-05T04:40:05.167Z,6.70
2019-03-05T04:41:09.757Z,6.70
2019-03-05T04:42:14.335Z,6.70
2019-03-05T04:43:18.902Z,6.70
2019-03-05T04:44:29.900Z,6.70
2019-03-05T04:45:41.724Z,6.70
2019-03-05T04:46:49.989Z,6.70
2019-03-05T04:47:54.562Z,6.70
2019-03-05T04:49:17.244Z,6.70
2019-03-05T04:50:26.605Z,6.70
2019-03-05T04:51:39.193Z,6.70
2019-03-05T04:52:43.843Z,6.70
2019-03-05T04:53:48.916Z,6.70
2019-03-05T04:54:53.571Z,6.70
2019-03-05T04:55:58.167Z,6.70
2019-03-05T04:57:02.825Z,6.70
2019-03-05T04:58:07.439Z,6.70
2019-03-05T04:59:12.285Z,6.70
2019-03-05T05:00:17.345Z,6.70
2019-03-05T05:01:21.968Z,6.70
2019-03-05T05:02:26.521Z,6.60
2019-03-05T05:03:31.100Z,6.70
2019-03-05T05:04:35.741Z,6.60
2019-03-05T05:05:40.456Z,6.60
2019-03-05T05:06:45.057Z,6.60
2019-03-05T05:07:49.595Z,6.60
2019-03-05T05:08:54.240Z,6.70
2019-03-05T05:09:58.817Z,6.60
2019-03-05T05:11:03.402Z,6.60
2019-03-05T05:12:08.256Z,6.60
2019-03-05T05:13:13.150Z,6.60
2019-03-05T05:14:18.175Z,6.60
2019-03-05T05:15:30.361Z,6.70
2019-03-05T05:16:35.065Z,6.60
2019-03-05T05:17:39.688Z,6.60
2019-03-05T05:18:44.346Z,6.70
2019-03-05T05:19:49.077Z,6.60
2019-03-05T05:20:53.645Z,6.60
2019-03-05T05:21:58.285Z,6.70
2019-03-05T05:23:02.945Z,6.70
2019-03-05T05:24:07.616Z,6.70
2019-03-05T05:25:12.251Z,6.60
2019-03-05T05:26:17.783Z,6.70
2019-03-05T05:27:23.684Z,6.70
2019-03-05T05:28:28.297Z,6.70
2019-03-05T05:29:32.904Z,6.70
2019-03-05T05:30:38.891Z,6.70
2019-03-05T05:31:43.515Z,6.70
2019-03-05T05:32:48.069Z,6.70
2019-03-05T05:33:52.724Z,6.70
2019-03-05T05:34:57.289Z,6.70
2019-03-05T05:36:01.861Z,6.70
2019-03-05T05:37:06.429Z,6.70
2019-03-05T05:38:11.066Z,6.70
2019-03-05T05:39:51.808Z,6.70
2019-03-05T05:41:02.667Z,6.70
2019-03-05T05:42:07.229Z,6.80
2019-03-05T05:43:20.347Z,6.70
2019-03-05T05:44:24.980Z,6.70
2019-03-05T05:45:32.821Z,6.70
2019-03-05T05:46:37.431Z,6.70
2019-03-05T05:47:42.044Z,6.70
2019-03-05T05:48:46.645Z,6.70
2019-03-05T05:49:51.316Z,6.70
2019-03-05T05:50:55.916Z,6.70
2019-03-05T05:53:00.514Z,6.70
2019-03-05T05:54:05.179Z,6.70
2019-03-05T05:55:10.474Z,6.70
2019-03-05T05:56:15.111Z,6.70
2019-03-05T05:57:19.672Z,6.70
2019-03-05T05:58:24.250Z,6.70
2019-03-05T05:59:28.857Z,6.70
2019-03-05T06:00:34.764Z,6.70
2019-03-05T06:01:39.356Z,6.70
2019-03-05T06:02:43.928Z,6.70
2019-03-05T06:03:48.509Z,6.70
2019-03-05T06:04:53.114Z,6.80
2019-03-05T06:05:57.684Z,6.80
2019-03-05T06:07:02.271Z,6.80
2019-03-05T06:08:06.927Z,6.80
2019-03-05T06:09:11.641Z,6.80
2019-03-05T06:10:16.255Z,6.80
2019-03-05T06:11:20.844Z,6.80
2019-03-05T06:12:25.445Z,6.80
2019-03-05T06:13:30.220Z,6.80
2019-03-05T06:14:34.780Z,6.80
2019-03-05T06:15:39.378Z,6.80
2019-03-05T06:16:44.016Z,6.80
2019-03-05T06:17:48.613Z,6.80
2019-03-05T06:18:53.179Z,6.80
2019-03-05T06:19:57.783Z,6.90
2019-03-05T06:21:02.485Z,6.80
2019-03-05T06:22:07.072Z,6.90
2019-03-05T06:23:11.715Z,6.90
2019-03-05T06:24:17.236Z,6.90
2019-03-05T06:25:22.069Z,6.90
2019-03-05T06:26:26.668Z,6.90
2019-03-05T06:27:31.272Z,6.90
2019-03-05T06:28:35.852Z,6.90
2019-03-05T06:29:40.428Z,6.90
2019-03-05T06:30:45.043Z,6.90
2019-03-05T06:31:49.674Z,6.90
2019-03-05T06:32:54.449Z,6.80
2019-03-05T06:33:59.032Z,6.90
2019-03-05T06:35:05.068Z,6.90
2019-03-05T06:36:09.651Z,6.90
2019-03-05T06:37:14.207Z,6.90
2019-03-05T06:38:18.855Z,6.90
2019-03-05T06:39:23.483Z,6.90
2019-03-05T06:40:28.126Z,6.90
2019-03-05T06:41:32.744Z,6.80
2019-03-05T06:42:37.423Z,6.90
2019-03-05T06:43:42.028Z,6.80
2019-03-05T06:44:46.726Z,6.80
2019-03-05T06:45:51.300Z,6.90
2019-03-05T06:46:56.854Z,6.80
2019-03-05T06:48:01.481Z,6.90
2019-03-05T06:49:06.145Z,6.90
2019-03-05T06:50:11.288Z,6.90
2019-03-05T06:51:15.923Z,6.90
2019-03-05T06:52:20.516Z,6.90
2019-03-05T06:53:25.099Z,6.90
2019-03-05T06:54:29.687Z,6.90
2019-03-05T06:55:34.431Z,6.90
2019-03-05T06:56:38.995Z,6.90
2019-03-05T06:57:43.790Z,7.00
2019-03-05T06:58:48.404Z,7.00
2019-03-05T06:59:53.056Z,7.00
2019-03-05T07:00:57.646Z,7.00
2019-03-05T07:02:02.220Z,7.00
2019-03-05T07:03:07.684Z,7.00
2019-03-05T07:04:12.274Z,7.00
2019-03-05T07:05:53.237Z,7.00
2019-03-05T07:06:58.697Z,7.00
2019-03-05T07:08:03.560Z,7.10
2019-03-05T07:09:16.092Z,7.00
2019-03-05T07:11:04.336Z,7.00
2019-03-05T07:12:18.691Z,7.00
2019-03-05T07:13:23.437Z,7.10
2019-03-05T07:15:11.267Z,7.10
2019-03-05T07:16:32.675Z,7.10
2019-03-05T07:17:44.312Z,7.00
2019-03-05T07:19:05.320Z,7.00
2019-03-05T07:20:32.873Z,7.00
2019-03-05T07:22:20.995Z,7.00
2019-03-05T07:23:43.046Z,7.00
2019-03-05T07:24:51.206Z,7.00
2019-03-05T07:25:55.810Z,7.10
2019-03-05T07:27:01.549Z,7.10
2019-03-05T07:28:06.118Z,7.10
2019-03-05T07:29:10.711Z,7.10
2019-03-05T07:30:23.014Z,7.20
2019-03-05T07:31:27.654Z,7.30
2019-03-05T07:32:32.355Z,7.40
2019-03-05T07:33:37.032Z,7.50
2019-03-05T07:34:44.592Z,7.50
2019-03-05T07:35:49.239Z,7.60
2019-03-05T07:36:53.852Z,7.70
2019-03-05T07:37:58.417Z,7.80
2019-03-05T07:39:03.128Z,7.90
2019-03-05T07:40:09.692Z,8.10
2019-03-05T07:41:14.347Z,8.20
2019-03-05T07:42:18.904Z,8.30
2019-03-05T07:43:23.486Z,8.30
2019-03-05T07:44:28.056Z,8.30
2019-03-05T07:45:32.687Z,8.30
2019-03-05T07:46:37.305Z,8.30
2019-03-05T07:47:41.904Z,8.30
2019-03-05T07:48:46.551Z,8.40
2019-03-05T07:49:52.174Z,8.30
2019-03-05T07:50:56.837Z,8.30
2019-03-05T07:52:01.565Z,8.30
2019-03-05T07:53:06.199Z,8.20
2019-03-05T07:54:13.785Z,8.10
2019-03-05T07:55:18.779Z,8.10
2019-03-05T07:56:24.039Z,8.00
2019-03-05T07:57:29.159Z,7.90
2019-03-05T07:58:33.777Z,7.80
2019-03-05T07:59:40.233Z,7.80
2019-03-05T08:00:45.991Z,7.80
2019-03-05T08:01:51.863Z,7.80
2019-03-05T08:02:56.685Z,7.90
2019-03-05T08:04:02.331Z,7.90
2019-03-05T08:05:08.996Z,7.90
2019-03-05T08:06:13.645Z,8.00
2019-03-05T08:07:18.244Z,8.00
2019-03-05T08:08:59.564Z,8.00
2019-03-05T08:10:18.861Z,8.00
2019-03-05T08:11:23.622Z,8.10
2019-03-05T08:12:47.099Z,8.00
2019-03-05T08:14:36.696Z,7.90
2019-03-05T08:16:02.494Z,7.90
2019-03-05T08:17:03.158Z,7.90
2019-03-05T08:18:09.384Z,7.90
2019-03-05T08:19:15.640Z,7.90
2019-03-05T08:20:20.474Z,8.00
2019-03-05T08:21:25.199Z,8.00
2019-03-05T08:22:30.006Z,8.00
2019-03-05T08:23:34.740Z,8.00
2019-03-05T08:24:39.408Z,8.00
2019-03-05T08:25:44.186Z,8.00
2019-03-05T08:26:48.791Z,8.10
2019-03-05T08:27:55.044Z,8.10
2019-03-05T08:29:02.727Z,8.10
2019-03-05T08:30:14.263Z,8.10
2019-03-05T08:31:14.660Z,8.10
2019-03-05T08:32:19.317Z,8.20
2019-03-05T08:33:24.189Z,8.20
2019-03-05T08:34:28.818Z,8.30
2019-03-05T08:35:33.729Z,8.30
2019-03-05T08:36:38.421Z,8.30
2019-03-05T08:37:43.059Z,8.30
2019-03-05T08:38:47.624Z,8.30
2019-03-05T08:39:52.638Z,8.40
2019-03-05T08:40:57.353Z,8.50
2019-03-05T08:42:02.150Z,8.50
2019-03-05T08:43:07.138Z,8.60
2019-03-05T08:44:12.767Z,8.60
2019-03-05T08:45:28.525Z,8.60
2019-03-05T08:46:24.392Z,8.60
2019-03-05T08:47:29.502Z,8.60
2019-03-05T08:48:34.132Z,8.60
2019-03-05T08:49:38.952Z,8.50
2019-03-05T08:50:43.813Z,8.50
2019-03-05T08:51:48.726Z,8.40
2019-03-05T08:52:53.427Z,8.40
2019-03-05T08:53:58.172Z,8.50
2019-03-05T08:55:02.750Z,8.50
2019-03-05T08:56:08.796Z,8.50
2019-03-05T08:57:13.487Z,8.50
2019-03-05T08:58:18.381Z,8.50
2019-03-05T08:59:23.146Z,8.50
2019-03-05T09:00:27.703Z,8.60
2019-03-05T09:01:32.445Z,8.60
2019-03-05T09:02:47.755Z,8.70
2019-03-05T09:03:43.460Z,8.70
2019-03-05T09:04:48.079Z,8.80
2019-03-05T09:05:53.108Z,8.70
2019-03-05T09:06:57.851Z,8.80
2019-03-05T09:08:02.696Z,8.80
2019-03-05T09:09:09.433Z,8.80
2019-03-05T09:10:16.355Z,8.80
2019-03-05T09:11:21.741Z,8.70
2019-03-05T09:12:26.535Z,8.70
2019-03-05T09:13:32.971Z,8.70
2019-03-05T09:14:37.750Z,8.70
2019-03-05T09:15:42.693Z,8.70
2019-03-05T09:16:47.404Z,8.70
2019-03-05T09:17:52.010Z,8.60
2019-03-05T09:18:56.645Z,8.60
2019-03-05T09:20:01.229Z,8.60
2019-03-05T09:21:06.182Z,8.70
2019-03-05T09:22:10.754Z,8.70
2019-03-05T09:23:15.880Z,8.70
2019-03-05T09:24:20.987Z,8.60
2019-03-05T09:25:25.627Z,8.70
2019-03-05T09:26:30.289Z,8.70
2019-03-05T09:27:35.275Z,8.70
2019-03-05T09:28:41.279Z,8.70
2019-03-05T09:29:45.859Z,8.70
2019-03-05T09:30:50.492Z,8.70
2019-03-05T09:31:55.166Z,8.70
2019-03-05T09:32:59.735Z,8.70
2019-03-05T09:34:05.360Z,8.60
2019-03-05T09:35:10.609Z,8.60
2019-03-05T09:36:15.328Z,8.60
2019-03-05T09:37:19.921Z,8.60
2019-03-05T09:38:24.904Z,8.50
2019-03-05T09:39:29.502Z,8.60
2019-03-05T09:40:34.200Z,8.60
2019-03-05T09:41:38.742Z,8.60
2019-03-05T09:42:43.373Z,8.60
2019-03-05T09:43:48.015Z,8.60
2019-03-05T09:44:52.601Z,8.60
2019-03-05T09:45:57.773Z,8.50
2019-03-05T09:47:02.337Z,8.50
2019-03-05T09:48:07.004Z,8.50
2019-03-05T09:49:14.634Z,8.40
2019-03-05T09:50:19.420Z,8.40
2019-03-05T09:51:24.631Z,8.40
2019-03-05T09:52:29.432Z,8.40
2019-03-05T09:53:34.328Z,8.40
2019-03-05T09:54:39.744Z,8.40
2019-03-05T09:55:44.380Z,8.50
2019-03-05T09:56:48.939Z,8.50
2019-03-05T09:58:06.951Z,8.60
2019-03-05T09:59:01.712Z,8.60
2019-03-05T10:01:19.686Z,8.60
2019-03-05T10:02:25.104Z,8.60
2019-03-05T10:03:29.755Z,8.60
2019-03-05T10:04:34.504Z,8.60
2019-03-05T10:05:39.114Z,8.50
2019-03-05T10:06:43.692Z,8.50
2019-03-05T10:07:48.787Z,8.50
2019-03-05T10:08:53.370Z,8.40
2019-03-05T10:09:58.023Z,8.40
2019-03-05T10:11:02.603Z,8.40
2019-03-05T10:12:07.380Z,8.30
2019-03-05T10:13:13.340Z,8.20
2019-03-05T10:14:18.431Z,8.20
2019-03-05T10:15:24.027Z,8.20
2019-03-05T10:16:29.679Z,8.20
2019-03-05T10:17:37.964Z,8.20
2019-03-05T10:18:40.678Z,8.30
2019-03-05T10:19:46.471Z,8.20
2019-03-05T10:20:52.198Z,8.20
2019-03-05T10:21:56.898Z,8.20
2019-03-05T10:23:01.831Z,8.20
2019-03-05T10:24:10.497Z,8.20
2019-03-05T10:25:13.465Z,8.20
2019-03-05T10:26:18.802Z,8.20
2019-03-05T10:27:23.781Z,8.30
2019-03-05T10:28:29.184Z,8.40
2019-03-05T10:29:34.458Z,8.50
2019-03-05T10:30:39.813Z,8.60
2019-03-05T10:31:44.416Z,8.60
2019-03-05T10:32:50.280Z,8.70
2019-03-05T10:33:55.176Z,8.70
2019-03-05T10:34:59.936Z,8.70
2019-03-05T10:36:04.900Z,8.70
2019-03-05T10:37:14.686Z,8.70
2019-03-05T10:38:16.029Z,8.70
2019-03-05T10:39:30.908Z,8.70
2019-03-05T10:40:35.957Z,8.70
2019-03-05T10:41:42.903Z,8.70
2019-03-05T10:42:46.815Z,8.70
2019-03-05T10:43:51.735Z,8.70
2019-03-05T10:44:56.464Z,8.70
2019-03-05T10:46:01.124Z,8.80
2019-03-05T10:47:08.563Z,8.90
2019-03-05T10:48:14.598Z,8.90
2019-03-05T10:49:19.304Z,8.90
2019-03-05T10:50:25.401Z,8.90
2019-03-05T10:51:30.088Z,8.90
2019-03-05T10:52:35.516Z,8.80
2019-03-05T10:53:40.427Z,8.80
2019-03-05T10:54:45.081Z,8.90
2019-03-05T10:55:50.315Z,8.90
2019-03-05T10:56:55.233Z,8.90
2019-03-05T10:58:00.278Z,9.00
2019-03-05T10:59:05.557Z,9.00
2019-03-05T11:00:13.849Z,9.00
2019-03-05T11:01:19.696Z,9.10
2019-03-05T11:02:25.227Z,9.10
2019-03-05T11:03:30.688Z,9.10
2019-03-05T11:04:45.426Z,9.10
2019-03-05T11:05:45.021Z,9.10
2019-03-05T11:06:54.199Z,9.10
2019-03-05T11:08:01.075Z,9.10
2019-03-05T11:09:08.264Z,9.10
2019-03-05T11:10:13.475Z,9.10
2019-03-05T11:11:18.475Z,9.10
2019-03-05T11:12:23.309Z,9.20
2019-03-05T11:13:28.379Z,9.20
2019-03-05T11:14:35.408Z,9.30
2019-03-05T11:15:40.240Z,9.30
2019-03-05T11:16:45.318Z,9.40
2019-03-05T11:17:50.580Z,9.40
2019-03-05T11:18:55.158Z,9.30
2019-03-05T11:19:59.977Z,9.30
2019-03-05T11:21:05.814Z,9.20
2019-03-05T11:22:10.665Z,9.20
2019-03-05T11:23:15.413Z,9.20
2019-03-05T11:24:21.460Z,9.20
2019-03-05T11:25:26.256Z,9.20
2019-03-05T11:26:30.888Z,9.20
2019-03-05T11:27:38.427Z,9.20
2019-03-05T11:28:43.204Z,9.20
2019-03-05T11:29:47.940Z,9.20
2019-03-05T11:30:52.753Z,9.20
2019-03-05T11:31:57.376Z,9.20
2019-03-05T11:33:01.939Z,9.20
2019-03-05T11:34:06.687Z,9.20
2019-03-05T11:35:13.899Z,9.20
2019-03-05T11:36:18.880Z,9.10
2019-03-05T11:37:23.523Z,9.10
2019-03-05T11:38:28.286Z,9.00
2019-03-05T11:39:34.171Z,9.00
2019-03-05T11:40:42.137Z,9.00
2019-03-05T11:41:46.900Z,9.00
2019-03-05T11:42:52.239Z,8.90
2019-03-05T11:43:56.800Z,8.90
2019-03-05T11:45:07.654Z,8.90
2019-03-05T11:46:14.787Z,8.80
2019-03-05T11:47:19.568Z,8.80
2019-03-05T11:48:24.169Z,8.70
2019-03-05T11:49:28.801Z,8.80
2019-03-05T11:50:33.371Z,8.80
2019-03-05T11:51:38.270Z,8.90
2019-03-05T11:52:45.139Z,8.90
2019-03-05T11:53:50.000Z,9.00
2019-03-05T11:54:55.748Z,9.00
2019-03-05T11:56:00.465Z,9.10
2019-03-05T11:57:05.134Z,9.10
2019-03-05T11:58:09.894Z,9.10
2019-03-05T11:59:14.673Z,9.20
2019-03-05T12:00:40.373Z,9.20
2019-03-05T12:01:50.667Z,9.20
2019-03-05T12:02:55.243Z,9.20
2019-03-05T12:03:59.923Z,9.20
2019-03-05T12:05:05.432Z,9.10
2019-03-05T12:06:10.731Z,9.10
2019-03-05T12:07:15.319Z,9.10
2019-03-05T12:08:19.959Z,9.00
2019-03-05T12:09:24.739Z,9.00
2019-03-05T12:10:29.331Z,9.00
2019-03-05T12:11:33.881Z,8.90
2019-03-05T12:12:38.436Z,8.90
2019-03-05T12:13:43.035Z,8.90
2019-03-05T12:14:48.152Z,8.90
2019-03-05T12:15:52.918Z,8.90
2019-03-05T12:16:57.538Z,8.90
2019-03-05T12:18:02.220Z,9.00
2019-03-05T12:19:07.342Z,9.00
2019-03-05T12:20:12.649Z,9.00
2019-03-05T12:21:17.293Z,9.00
2019-03-05T12:22:21.891Z,9.00
2019-03-05T12:23:26.902Z,9.00
2019-03-05T12:24:31.648Z,9.00
2019-03-05T12:25:39.820Z,9.00
2019-03-05T12:26:46.095Z,8.90
2019-03-05T12:27:51.512Z,8.90
2019-03-05T12:28:58.156Z,8.90
2019-03-05T12:30:03.983Z,8.90
2019-03-05T12:31:08.915Z,8.90
2019-03-05T12:32:15.374Z,8.80
2019-03-05T12:33:20.577Z,8.70
2019-03-05T12:34:25.551Z,8.70
2019-03-05T12:35:30.841Z,8.60
2019-03-05T12:36:35.610Z,8.60
2019-03-05T12:37:40.333Z,8.50
2019-03-05T12:38:46.281Z,8.50
2019-03-05T12:39:51.812Z,8.50
2019-03-05T12:40:56.576Z,8.40
2019-03-05T12:42:03.546Z,8.20
2019-03-05T12:43:08.873Z,8.00
2019-03-05T12:44:24.077Z,7.80
2019-03-05T12:45:32.197Z,7.60
2019-03-05T12:46:38.019Z,7.50
2019-03-05T12:47:43.978Z,7.40
2019-03-05T12:48:48.681Z,7.40
2019-03-05T12:49:53.413Z,7.40
2019-03-05T12:50:58.044Z,7.40
2019-03-05T12:52:02.644Z,7.30
2019-03-05T12:53:10.853Z,7.30
2019-03-05T12:54:15.779Z,7.40
2019-03-05T12:55:21.496Z,7.50
2019-03-05T12:56:26.183Z,7.50
2019-03-05T12:57:32.601Z,7.60
2019-03-05T12:58:37.455Z,7.60
2019-03-05T12:59:42.045Z,7.60
2019-03-05T13:00:46.695Z,7.70
2019-03-05T13:01:52.344Z,7.70
2019-03-05T13:02:58.284Z,7.80
2019-03-05T13:04:03.087Z,7.80
2019-03-05T13:05:10.228Z,7.90
2019-03-05T13:06:15.073Z,7.90
2019-03-05T13:07:20.113Z,8.00
2019-03-05T13:08:24.771Z,8.00
2019-03-05T13:09:31.626Z,8.00
2019-03-05T13:10:37.704Z,8.00
2019-03-05T13:11:46.562Z,8.10
2019-03-05T13:12:49.590Z,8.10
2019-03-05T13:14:05.754Z,8.20
2019-03-05T13:15:01.607Z,8.20
2019-03-05T13:16:08.067Z,8.20
2019-03-05T13:17:12.920Z,8.40
2019-03-05T13:18:18.364Z,8.50
2019-03-05T13:19:25.827Z,8.60
2019-03-05T13:20:30.706Z,8.70
2019-03-05T13:21:36.115Z,8.80
2019-03-05T13:22:42.550Z,8.90
2019-03-05T13:23:47.274Z,9.00
2019-03-05T13:24:51.910Z,9.10
2019-03-05T13:26:03.146Z,9.20
2019-03-05T13:27:09.800Z,9.20
2019-03-05T13:28:14.379Z,9.30
2019-03-05T13:29:20.638Z,9.40
2019-03-05T13:30:26.878Z,9.30
2019-03-05T13:31:31.674Z,9.20
2019-03-05T13:32:36.351Z,9.10
2019-03-05T13:33:42.185Z,9.10
2019-03-05T13:34:47.264Z,9.00
2019-03-05T13:35:52.085Z,9.00
2019-03-05T13:36:56.736Z,8.90
2019-03-05T13:38:03.257Z,8.80
2019-03-05T13:39:08.695Z,8.80
2019-03-05T13:40:17.400Z,8.80
2019-03-05T13:41:21.959Z,8.80
2019-03-05T13:42:29.038Z,8.80
2019-03-05T13:43:32.957Z,8.90
2019-03-05T13:44:39.068Z,8.90
2019-03-05T13:45:49.159Z,8.90
2019-03-05T13:46:51.408Z,8.90
2019-03-05T13:48:00.117Z,9.00
2019-03-05T13:49:40.637Z,8.90
2019-03-05T13:51:15.272Z,9.00
2019-03-05T13:53:14.324Z,9.00
2019-03-05T13:54:49.649Z,8.90
2019-03-05T13:56:27.510Z,9.00
2019-03-05T13:58:04.026Z,9.00
2019-03-05T13:59:33.771Z,9.00
2019-03-05T14:00:38.699Z,9.10
2019-03-05T14:01:43.527Z,9.10
2019-03-05T14:03:26.233Z,9.10
2019-03-05T14:04:36.990Z,9.00
2019-03-05T14:06:13.876Z,9.00
2019-03-05T14:08:06.260Z,9.00
2019-03-05T14:09:16.378Z,9.00
2019-03-05T14:10:21.087Z,9.00
2019-03-05T14:11:25.831Z,9.00
2019-03-05T14:12:30.755Z,8.90
2019-03-05T14:13:35.376Z,8.90
2019-03-05T14:14:40.057Z,8.80
2019-03-05T14:15:44.890Z,8.80
2019-03-05T14:16:53.203Z,8.80
2019-03-05T14:17:58.868Z,8.70
2019-03-05T14:19:03.524Z,8.70
2019-03-05T14:20:11.650Z,8.60
2019-03-05T14:21:16.319Z,8.50
2019-03-05T14:22:21.108Z,8.50
2019-03-05T14:23:25.749Z,8.40
2019-03-05T14:24:30.396Z,8.40
2019-03-05T14:25:35.117Z,8.40
2019-03-05T14:26:39.892Z,8.40
2019-03-05T14:27:44.552Z,8.30
2019-03-05T14:28:49.234Z,8.30
2019-03-05T14:29:53.916Z,8.20
2019-03-05T14:30:58.794Z,8.00
2019-03-05T14:32:03.691Z,8.00
2019-03-05T14:33:08.848Z,7.90
2019-03-05T14:34:13.678Z,7.90
2019-03-05T14:35:20.695Z,7.80
2019-03-05T14:36:25.420Z,7.70
2019-03-05T14:37:31.689Z,7.70
2019-03-05T14:38:36.261Z,7.60
2019-03-05T14:39:41.112Z,7.60
2019-03-05T14:40:46.226Z,7.60
2019-03-05T14:41:50.986Z,7.60
2019-03-05T14:42:55.890Z,7.60
2019-03-05T14:44:00.581Z,7.60
2019-03-05T14:45:07.209Z,7.60
2019-03-05T14:46:12.013Z,7.60
2019-03-05T14:47:16.710Z,7.60
2019-03-05T14:48:21.485Z,7.60
2019-03-05T14:49:27.042Z,7.60
2019-03-05T14:50:31.864Z,7.60
2019-03-05T14:51:36.715Z,7.60
2019-03-05T14:52:41.556Z,7.70
2019-03-05T14:53:46.315Z,7.60
2019-03-05T14:54:50.953Z,7.70
2019-03-05T14:55:55.871Z,7.70
2019-03-05T14:57:00.621Z,7.70
2019-03-05T14:58:05.499Z,7.70
2019-03-05T14:59:10.215Z,7.70
2019-03-05T15:00:17.075Z,7.70
2019-03-05T15:01:21.744Z,7.70
2019-03-05T15:02:26.599Z,7.70
2019-03-05T15:03:31.536Z,7.70
2019-03-05T15:04:36.218Z,7.80
2019-03-05T15:05:44.279Z,7.80
2019-03-05T15:06:49.967Z,7.80
2019-03-05T15:07:56.667Z,7.80
2019-03-05T15:09:02.111Z,7.90